createdAt,value
2018-08-28T00:01:49.835Z,16.59
2018-08-28T00:04:23.203Z,16.60
2018-08-28T00:06:56.624Z,16.59
2018-08-28T00:09:30.009Z,16.59
2018-08-28T00:12:03.393Z,16.59
2018-08-28T00:14:36.800Z,16.60
2018-08-28T00:17:10.361Z,16.58
2018-08-28T00:19:43.664Z,16.57
2018-08-28T00:22:17.049Z,16.56
2018-08-28T00:24:50.490Z,16.56
2018-08-28T00:27:23.875Z,16.52
2018-08-28T00:29:57.563Z,16.45
2018-08-28T00:32:30.928Z,16.43
2018-08-28T00:35:04.329Z,16.41
2018-08-28T00:37:37.789Z,16.33
2018-08-28T00:40:11.189Z,16.26
2018-08-28T00:42:44.579Z,16.18
2018-08-28T00:45:18.046Z,16.12
2018-08-28T00:47:51.502Z,16.05
2018-08-28T00:50:24.933Z,15.97
2018-08-28T00:52:58.310Z,15.88
2018-08-28T00:55:31.812Z,15.83
2018-08-28T00:58:05.329Z,15.77
2018-08-28T01:00:38.726Z,15.77
2018-08-28T01:03:12.106Z,15.77
2018-08-28T01:05:45.511Z,15.78
2018-08-28T01:08:18.877Z,15.78
2018-08-28T01:10:52.261Z,15.82
2018-08-28T01:13:25.624Z,15.84
2018-08-28T01:15:59.000Z,15.85
2018-08-28T01:18:32.383Z,15.89
2018-08-28T01:21:05.758Z,15.92
2018-08-28T01:23:39.194Z,15.92
2018-08-28T01:26:12.676Z,15.90
2018-08-28T01:28:46.020Z,15.90
2018-08-28T01:31:19.408Z,15.90
2018-08-28T01:33:52.757Z,15.94
2018-08-28T01:36:26.145Z,15.97
2018-08-28T01:38:59.540Z,15.98
2018-08-28T01:41:33.032Z,15.97
2018-08-28T01:44:06.388Z,15.97
2018-08-28T01:46:39.797Z,15.98
2018-08-28T01:49:13.172Z,16.01
2018-08-28T01:51:46.551Z,16.01
2018-08-28T01:54:19.908Z,15.98
2018-08-28T01:56:53.301Z,16.01
2018-08-28T01:59:26.703Z,16.00
2018-08-28T02:02:00.092Z,16.02
2018-08-28T02:04:33.484Z,16.03
2018-08-28T02:07:06.903Z,16.02
2018-08-28T02:09:40.260Z,16.02
2018-08-28T02:12:13.655Z,16.07
2018-08-28T02:14:47.028Z,16.07
2018-08-28T02:17:20.425Z,16.07
2018-08-28T02:19:53.792Z,16.09
2018-08-28T02:22:27.190Z,16.10
2018-08-28T02:25:00.561Z,16.10
2018-08-28T02:27:33.939Z,16.08
2018-08-28T02:30:07.312Z,16.06
2018-08-28T02:32:40.804Z,16.02
2018-08-28T02:35:14.145Z,15.98
2018-08-28T02:37:47.574Z,15.94
2018-08-28T02:40:20.936Z,15.89
2018-08-28T02:42:54.379Z,15.84
2018-08-28T02:45:27.781Z,15.74
2018-08-28T02:48:01.267Z,15.65
2018-08-28T02:50:34.674Z,15.62
2018-08-28T02:53:08.112Z,15.55
2018-08-28T02:55:41.565Z,15.49
2018-08-28T02:58:14.996Z,15.44
2018-08-28T03:00:48.374Z,15.40
2018-08-28T03:03:21.773Z,15.35
2018-08-28T03:05:55.149Z,15.26
2018-08-28T03:08:28.539Z,15.22
2018-08-28T03:11:01.959Z,15.18
2018-08-28T03:13:35.336Z,15.15
2018-08-28T03:16:08.841Z,15.12
2018-08-28T03:18:42.113Z,15.09
2018-08-28T03:21:15.593Z,15.14
2018-08-28T03:23:48.938Z,15.13
2018-08-28T03:26:22.323Z,15.10
2018-08-28T03:28:55.744Z,15.04
2018-08-28T03:31:29.071Z,15.04
2018-08-28T03:34:02.845Z,15.06
2018-08-28T03:36:36.204Z,15.00
2018-08-28T03:39:09.639Z,14.96
2018-08-28T03:41:43.028Z,14.93
2018-08-28T03:44:16.396Z,14.88
2018-08-28T03:46:50.090Z,14.87
2018-08-28T03:49:23.452Z,14.80
2018-08-28T03:51:56.852Z,14.74
2018-08-28T03:54:30.256Z,14.70
2018-08-28T03:57:03.644Z,14.66
2018-08-28T03:59:37.077Z,14.62
2018-08-28T04:02:10.532Z,14.51
2018-08-28T04:04:43.911Z,14.44
2018-08-28T04:07:17.332Z,14.44
2018-08-28T04:09:50.707Z,14.44
2018-08-28T04:12:24.105Z,14.44
2018-08-28T04:14:57.479Z,14.46
2018-08-28T04:17:30.920Z,14.45
2018-08-28T04:20:04.328Z,14.45
2018-08-28T04:22:37.736Z,14.43
2018-08-28T04:25:11.143Z,14.40
2018-08-28T04:27:44.774Z,14.39
2018-08-28T04:30:18.225Z,14.36
2018-08-28T04:32:51.670Z,14.34
2018-08-28T04:35:25.027Z,14.32
2018-08-28T04:37:58.419Z,14.30
2018-08-28T04:40:31.842Z,14.29
2018-08-28T04:43:05.261Z,14.28
2018-08-28T04:45:38.627Z,14.30
2018-08-28T04:48:12.045Z,14.24
2018-08-28T04:50:45.460Z,14.26
2018-08-28T04:53:18.879Z,14.28
2018-08-28T04:55:52.253Z,14.30
2018-08-28T04:58:25.720Z,14.34
2018-08-28T05:00:59.107Z,14.38
2018-08-28T05:03:32.552Z,14.40
2018-08-28T05:06:06.040Z,14.41
2018-08-28T05:08:39.424Z,14.44
2018-08-28T05:11:12.798Z,14.46
2018-08-28T05:13:46.200Z,14.50
2018-08-28T05:16:19.602Z,14.55
2018-08-28T05:18:53.002Z,14.55
2018-08-28T05:21:26.395Z,14.59
2018-08-28T05:23:59.790Z,14.63
2018-08-28T05:26:33.143Z,14.67
2018-08-28T05:29:06.606Z,14.71
2018-08-28T05:31:40.100Z,14.78
2018-08-28T05:34:13.476Z,14.84
2018-08-28T05:36:46.841Z,14.90
2018-08-28T05:39:20.249Z,15.01
2018-08-28T05:41:53.693Z,15.15
2018-08-28T05:44:27.116Z,15.25
2018-08-28T05:47:00.520Z,15.38
2018-08-28T05:49:33.984Z,15.50
2018-08-28T05:52:07.386Z,15.59
2018-08-28T05:54:40.795Z,15.73
2018-08-28T05:57:14.164Z,15.84
2018-08-28T05:59:47.592Z,15.97
2018-08-28T06:02:20.968Z,16.10
2018-08-28T06:04:54.365Z,16.22
2018-08-28T06:07:27.770Z,16.32
2018-08-28T06:10:01.182Z,16.39
2018-08-28T06:12:34.587Z,16.52
2018-08-28T06:15:08.137Z,16.67
2018-08-28T06:17:41.501Z,16.81
2018-08-28T06:20:14.903Z,16.87
2018-08-28T06:22:48.259Z,16.97
2018-08-28T06:25:21.620Z,17.10
2018-08-28T06:27:54.975Z,17.22
2018-08-28T06:30:28.387Z,17.34
2018-08-28T06:33:01.787Z,17.46
2018-08-28T06:35:35.232Z,17.50
2018-08-28T06:38:08.582Z,17.62
2018-08-28T06:40:41.960Z,17.76
2018-08-28T06:43:15.332Z,17.77
2018-08-28T06:45:48.719Z,17.83
2018-08-28T06:48:22.068Z,18.01
2018-08-28T06:50:55.457Z,18.17
2018-08-28T06:53:28.858Z,18.29
2018-08-28T06:56:02.297Z,18.34
2018-08-28T06:58:35.670Z,18.47
2018-08-28T07:01:09.057Z,18.65
2018-08-28T07:03:42.607Z,18.80
2018-08-28T07:06:16.005Z,18.92
2018-08-28T07:08:49.423Z,19.01
2018-08-28T07:11:25.816Z,19.12
2018-08-28T07:13:59.233Z,19.12
2018-08-28T07:16:32.637Z,19.06
2018-08-28T07:19:06.045Z,19.16
2018-08-28T07:21:39.466Z,19.32
2018-08-28T07:24:12.853Z,19.35
2018-08-28T07:26:46.247Z,19.38
2018-08-28T07:29:19.681Z,19.42
2018-08-28T07:31:53.190Z,19.51
2018-08-28T07:34:26.523Z,19.49
2018-08-28T07:36:59.923Z,19.54
2018-08-28T07:39:33.317Z,19.68
2018-08-28T07:42:06.724Z,19.81
2018-08-28T07:44:40.151Z,19.80
2018-08-28T07:47:13.552Z,19.82
2018-08-28T07:49:46.983Z,19.98
2018-08-28T07:52:20.349Z,20.03
2018-08-28T07:54:53.748Z,20.07
2018-08-28T07:57:27.194Z,20.14
2018-08-28T08:00:00.658Z,20.18
2018-08-28T08:02:34.039Z,20.41
2018-08-28T08:05:07.533Z,20.63
2018-08-28T08:07:41.036Z,20.57
2018-08-28T08:10:14.404Z,20.61
2018-08-28T08:12:47.873Z,20.79
2018-08-28T08:15:21.308Z,21.00
2018-08-28T08:17:54.674Z,21.06
2018-08-28T08:20:28.084Z,21.28
2018-08-28T08:23:01.684Z,21.33
2018-08-28T08:25:35.057Z,21.50
2018-08-28T08:28:08.596Z,21.60
2018-08-28T08:30:41.888Z,21.49
2018-08-28T08:33:15.272Z,21.38
2018-08-28T08:35:48.699Z,21.31
2018-08-28T08:38:22.081Z,21.35
2018-08-28T08:40:55.454Z,21.23
2018-08-28T08:43:28.849Z,21.36
2018-08-28T08:46:02.897Z,21.10
2018-08-28T08:48:36.283Z,20.78
2018-08-28T08:51:09.683Z,21.02
2018-08-28T08:53:43.065Z,21.13
2018-08-28T08:56:16.511Z,21.37
2018-08-28T08:58:49.871Z,21.40
2018-08-28T09:01:23.234Z,21.40
2018-08-28T09:03:56.636Z,21.68
2018-08-28T09:06:30.029Z,21.88
2018-08-28T09:09:03.569Z,21.89
2018-08-28T09:11:36.951Z,21.70
2018-08-28T09:14:10.310Z,21.80
2018-08-28T09:16:43.695Z,21.91
2018-08-28T09:19:17.058Z,22.06
2018-08-28T09:21:50.441Z,22.14
2018-08-28T09:24:23.823Z,22.30
2018-08-28T09:26:57.223Z,22.39
2018-08-28T09:29:30.627Z,22.40
2018-08-28T09:32:04.010Z,22.17
2018-08-28T09:34:37.373Z,22.06
2018-08-28T09:37:10.747Z,22.35
2018-08-28T09:39:44.109Z,22.71
2018-08-28T09:42:17.548Z,22.99
2018-08-28T09:44:50.919Z,22.89
2018-08-28T09:47:24.296Z,22.53
2018-08-28T09:49:57.734Z,22.35
2018-08-28T09:52:31.099Z,22.28
2018-08-28T09:55:04.544Z,22.24
2018-08-28T09:57:38.056Z,22.34
2018-08-28T10:00:16.455Z,22.61
2018-08-28T10:02:49.913Z,22.88
2018-08-28T10:05:23.428Z,22.80
2018-08-28T10:07:56.896Z,22.86
2018-08-28T10:10:30.279Z,22.75
2018-08-28T10:13:03.940Z,22.60
2018-08-28T10:15:37.305Z,22.22
2018-08-28T10:18:10.743Z,22.10
2018-08-28T10:20:44.135Z,21.99
2018-08-28T10:23:17.512Z,21.95
2018-08-28T10:25:50.916Z,21.90
2018-08-28T10:28:24.283Z,21.95
2018-08-28T10:30:57.677Z,22.19
2018-08-28T10:33:31.065Z,22.68
2018-08-28T10:36:04.486Z,23.13
2018-08-28T10:38:37.843Z,23.49
2018-08-28T10:41:11.237Z,23.62
2018-08-28T10:43:44.604Z,23.51
2018-08-28T10:46:18.058Z,23.16
2018-08-28T10:48:51.428Z,22.93
2018-08-28T10:51:24.866Z,22.75
2018-08-28T10:53:58.257Z,22.60
2018-08-28T10:56:31.684Z,22.59
2018-08-28T10:59:05.060Z,22.58
2018-08-28T11:01:38.462Z,22.52
2018-08-28T11:04:11.868Z,22.52
2018-08-28T11:06:45.298Z,22.45
2018-08-28T11:09:18.682Z,22.43
2018-08-28T11:11:52.080Z,22.42
2018-08-28T11:14:25.452Z,22.43
2018-08-28T11:16:58.941Z,22.42
2018-08-28T11:19:32.708Z,22.49
2018-08-28T11:22:06.108Z,22.52
2018-08-28T11:24:39.489Z,22.48
2018-08-28T11:27:12.914Z,22.52
2018-08-28T11:29:46.295Z,22.54
2018-08-28T11:32:19.692Z,22.54
2018-08-28T11:34:53.068Z,22.54
2018-08-28T11:37:26.476Z,22.54
2018-08-28T11:39:59.839Z,22.60
2018-08-28T11:42:33.219Z,22.63
2018-08-28T11:45:07.159Z,22.66
2018-08-28T11:47:40.575Z,22.71
2018-08-28T11:50:13.941Z,22.94
2018-08-28T11:52:47.384Z,23.02
2018-08-28T11:55:20.745Z,23.04
2018-08-28T11:57:54.119Z,23.04
2018-08-28T12:00:27.520Z,22.99
2018-08-28T12:03:01.160Z,22.78
2018-08-28T12:05:34.540Z,22.85
2018-08-28T12:08:07.936Z,22.91
2018-08-28T12:10:41.319Z,22.86
2018-08-28T12:13:14.744Z,22.80
2018-08-28T12:15:48.131Z,22.80
2018-08-28T12:18:21.531Z,22.66
2018-08-28T12:20:54.967Z,22.59
2018-08-28T12:23:28.326Z,22.57
2018-08-28T12:26:01.702Z,22.61
2018-08-28T12:28:35.164Z,22.63
2018-08-28T12:31:08.600Z,22.76
2018-08-28T12:33:41.993Z,22.66
2018-08-28T12:36:15.427Z,22.74
2018-08-28T12:38:48.861Z,22.84
2018-08-28T12:41:22.216Z,22.96
2018-08-28T12:43:55.718Z,23.05
2018-08-28T12:46:29.051Z,23.17
2018-08-28T12:49:02.477Z,23.21
2018-08-28T12:51:35.902Z,23.33
2018-08-28T12:54:09.334Z,23.41
2018-08-28T12:56:42.729Z,23.40
2018-08-28T12:59:16.144Z,23.42
2018-08-28T13:01:49.600Z,23.43
2018-08-28T13:04:23.053Z,23.43
2018-08-28T13:06:56.476Z,23.26
2018-08-28T13:09:29.845Z,23.20
2018-08-28T13:14:42.129Z,23.08
2018-08-28T13:17:15.506Z,23.00
2018-08-28T13:19:48.922Z,23.02
2018-08-28T13:22:22.308Z,23.05
2018-08-28T13:24:55.788Z,23.00
2018-08-28T13:27:29.241Z,22.96
2018-08-28T13:30:02.616Z,22.91
2018-08-28T13:32:35.972Z,23.02
2018-08-28T13:35:09.418Z,22.98
2018-08-28T13:37:43.111Z,23.03
2018-08-28T13:40:16.567Z,22.99
2018-08-28T13:42:49.930Z,23.07
2018-08-28T13:45:23.347Z,23.11
2018-08-28T13:47:56.726Z,23.09
2018-08-28T13:53:02.581Z,23.15
2018-08-28T13:55:36.025Z,23.18
2018-08-28T13:58:09.404Z,23.30
2018-08-28T14:00:42.814Z,23.36
2018-08-28T14:03:16.207Z,23.38
2018-08-28T14:05:49.627Z,23.40
2018-08-28T14:08:23.016Z,23.40
2018-08-28T14:10:56.430Z,23.32
2018-08-28T14:13:29.866Z,23.33
2018-08-28T14:16:03.263Z,23.37
2018-08-28T14:18:36.709Z,23.30
2018-08-28T14:21:10.113Z,23.29
2018-08-28T14:23:43.528Z,23.36
2018-08-28T14:26:16.950Z,23.47
2018-08-28T14:28:50.462Z,23.42
2018-08-28T14:31:23.778Z,23.51
2018-08-28T14:33:57.211Z,23.57
2018-08-28T14:36:30.623Z,23.45
2018-08-28T14:39:05.197Z,23.45
2018-08-28T14:41:38.648Z,23.49
2018-08-28T14:44:12.085Z,23.37
2018-08-28T14:46:45.494Z,23.39
2018-08-28T14:49:18.874Z,23.31
2018-08-28T14:51:52.285Z,23.36
2018-08-28T14:54:25.734Z,23.30
2018-08-28T14:56:59.149Z,23.23
2018-08-28T14:59:32.586Z,23.21
2018-08-28T15:02:06.004Z,23.18
2018-08-28T15:04:39.413Z,23.12
2018-08-28T15:07:12.938Z,23.10
2018-08-28T15:09:46.315Z,23.09
2018-08-28T15:12:19.731Z,23.10
2018-08-28T15:14:53.120Z,23.07
2018-08-28T15:17:26.550Z,23.09
2018-08-28T15:20:00.557Z,23.09
2018-08-28T15:22:33.955Z,22.94
2018-08-28T15:25:07.708Z,22.91
2018-08-28T15:27:41.157Z,22.94
2018-08-28T15:30:14.479Z,22.95
2018-08-28T15:32:47.951Z,22.97
2018-08-28T15:35:21.285Z,23.00
2018-08-28T15:37:54.706Z,22.99
2018-08-28T15:40:28.083Z,23.02
2018-08-28T15:43:01.538Z,23.00
2018-08-28T15:45:34.889Z,23.01
2018-08-28T15:48:09.164Z,23.05
2018-08-28T15:50:42.587Z,23.02
2018-08-28T15:53:15.979Z,23.02
2018-08-28T15:55:49.385Z,23.00
2018-08-28T15:58:22.758Z,22.98
2018-08-28T16:00:56.167Z,22.95
2018-08-28T16:03:29.529Z,22.99
2018-08-28T16:06:03.028Z,22.99
2018-08-28T16:08:36.396Z,22.94
2018-08-28T16:11:09.947Z,22.96
2018-08-28T16:13:43.388Z,22.97
2018-08-28T16:16:16.953Z,22.95
2018-08-28T16:18:50.997Z,22.90
2018-08-28T16:21:27.923Z,22.84
2018-08-28T16:24:01.316Z,22.85
2018-08-28T16:26:34.694Z,22.85
2018-08-28T16:29:08.062Z,22.84
2018-08-28T16:31:41.452Z,22.80
2018-08-28T16:34:14.859Z,22.75
2018-08-28T16:36:48.221Z,22.68
2018-08-28T16:39:21.633Z,22.66
2018-08-28T16:41:55.028Z,22.62
2018-08-28T16:44:28.450Z,22.56
2018-08-28T16:47:01.886Z,22.50
2018-08-28T16:49:35.318Z,22.44
2018-08-28T16:52:08.815Z,22.37
2018-08-28T16:54:42.209Z,22.31
2018-08-28T16:57:15.962Z,22.24
2018-08-28T16:59:49.395Z,22.21
2018-08-28T17:02:23.350Z,22.17
2018-08-28T17:04:56.790Z,22.06
2018-08-28T17:07:30.325Z,22.02
2018-08-28T17:10:03.681Z,21.99
2018-08-28T17:12:37.844Z,21.94
2018-08-28T17:15:11.263Z,21.88
2018-08-28T17:17:44.605Z,21.84
2018-08-28T17:20:17.949Z,21.77
2018-08-28T17:22:51.321Z,21.74
2018-08-28T17:25:24.696Z,21.73
2018-08-28T17:27:58.110Z,21.70
2018-08-28T17:30:32.486Z,21.64
2018-08-28T17:33:06.214Z,21.60
2018-08-28T17:35:39.595Z,21.55
2018-08-28T17:38:12.956Z,21.48
2018-08-28T17:40:46.351Z,21.37
2018-08-28T17:43:19.864Z,21.24
2018-08-28T17:45:53.271Z,21.13
2018-08-28T17:48:26.624Z,21.04
2018-08-28T17:51:00.000Z,20.94
2018-08-28T17:53:33.548Z,20.84
2018-08-28T17:56:06.975Z,20.71
2018-08-28T17:58:40.417Z,20.60
2018-08-28T18:01:13.859Z,20.53
2018-08-28T18:03:47.260Z,20.45
2018-08-28T18:06:20.616Z,20.38
2018-08-28T18:08:53.978Z,20.24
2018-08-28T18:11:28.217Z,20.19
2018-08-28T18:14:04.422Z,20.14
2018-08-28T18:16:40.670Z,20.10
2018-08-28T18:19:14.135Z,20.07
2018-08-28T18:21:47.546Z,20.05
2018-08-28T18:24:20.894Z,20.03
2018-08-28T18:26:54.768Z,20.01
2018-08-28T18:29:28.163Z,19.99
2018-08-28T18:32:02.753Z,19.98
2018-08-28T18:34:36.226Z,19.97
2018-08-28T18:37:10.026Z,19.93
2018-08-28T18:39:43.436Z,19.91
2018-08-28T18:42:16.787Z,19.85
2018-08-28T18:44:50.156Z,19.83
2018-08-28T18:47:23.532Z,19.82
2018-08-28T18:49:56.909Z,19.82
2018-08-28T18:52:31.021Z,19.78
2018-08-28T18:55:04.383Z,19.75
2018-08-28T18:57:37.771Z,19.74
2018-08-28T19:00:11.164Z,19.69
2018-08-28T19:02:44.573Z,19.65
2018-08-28T19:05:17.954Z,19.68
2018-08-28T19:07:51.401Z,19.67
2018-08-28T19:10:24.719Z,19.65
2018-08-28T19:12:59.013Z,19.65
2018-08-28T19:15:33.089Z,19.65
2018-08-28T19:18:06.480Z,19.63
2018-08-28T19:20:39.954Z,19.62
2018-08-28T19:23:13.729Z,19.59
2018-08-28T19:25:47.112Z,19.52
2018-08-28T19:28:20.560Z,19.49
2018-08-28T19:30:54.752Z,19.47
2018-08-28T19:33:28.895Z,19.47
2018-08-28T19:36:02.527Z,19.46
2018-08-28T19:38:36.429Z,19.46
2018-08-28T19:41:10.032Z,19.47
2018-08-28T19:43:43.414Z,19.47
2018-08-28T19:46:17.050Z,19.45
2018-08-28T19:48:50.436Z,19.44
2018-08-28T19:51:25.471Z,19.45
2018-08-28T19:53:59.471Z,19.46
2018-08-28T19:56:33.119Z,19.45
2018-08-28T19:59:06.592Z,19.41
2018-08-28T20:01:39.946Z,19.37
2018-08-28T20:04:13.400Z,19.30
2018-08-28T20:06:46.805Z,19.22
2018-08-28T20:09:20.200Z,19.19
2018-08-28T20:11:53.589Z,19.22
2018-08-28T20:14:27.043Z,19.22
2018-08-28T20:17:00.412Z,19.20
2018-08-28T20:19:33.840Z,19.15
2018-08-28T20:22:09.180Z,19.06
2018-08-28T20:24:42.595Z,19.02
2018-08-28T20:27:16.087Z,18.96
2018-08-28T20:29:49.446Z,18.89
2018-08-28T20:32:22.852Z,18.78
2018-08-28T20:34:56.242Z,18.61
2018-08-28T20:37:29.734Z,18.42
2018-08-28T20:40:03.132Z,18.34
2018-08-28T20:42:36.649Z,18.26
2018-08-28T20:45:10.080Z,18.20
2018-08-28T20:47:43.456Z,18.15
2018-08-28T20:50:16.886Z,18.09
2018-08-28T20:52:50.309Z,18.02
2018-08-28T20:55:23.748Z,17.90
2018-08-28T20:57:57.255Z,17.70
2018-08-28T21:00:30.684Z,17.67
2018-08-28T21:03:04.562Z,17.59
2018-08-28T21:05:38.007Z,17.54
2018-08-28T21:08:11.419Z,17.50
2018-08-28T21:10:44.829Z,17.45
2018-08-28T21:13:18.275Z,17.37
2018-08-28T21:15:51.712Z,17.29
2018-08-28T21:18:25.185Z,17.18
2018-08-28T21:20:58.656Z,17.09
2018-08-28T21:23:32.071Z,17.04
2018-08-28T21:26:05.691Z,16.94
2018-08-28T21:28:39.085Z,16.75
2018-08-28T21:31:12.505Z,16.69
2018-08-28T21:33:45.920Z,16.59
2018-08-28T21:36:19.568Z,16.56
2018-08-28T21:38:52.902Z,16.56
2018-08-28T21:41:26.253Z,16.55
2018-08-28T21:43:59.590Z,16.50
2018-08-28T21:46:32.921Z,16.42
2018-08-28T21:49:06.774Z,16.33
2018-08-28T21:51:40.109Z,16.24
2018-08-28T21:54:13.418Z,16.24
2018-08-28T21:56:46.741Z,16.25
2018-08-28T21:59:20.066Z,16.20
2018-08-28T22:01:53.417Z,16.13
2018-08-28T22:04:26.765Z,16.08
2018-08-28T22:07:05.496Z,16.02
2018-08-28T22:09:38.913Z,15.95
2018-08-28T22:12:12.221Z,15.91
2018-08-28T22:14:45.679Z,15.87
2018-08-28T22:17:19.039Z,15.80
2018-08-28T22:19:52.334Z,15.75
2018-08-28T22:22:25.650Z,15.68
2018-08-28T22:24:59.005Z,15.58
2018-08-28T22:27:32.325Z,15.56
2018-08-28T22:30:07.054Z,15.47
2018-08-28T22:32:41.445Z,15.46
2018-08-28T22:35:14.757Z,15.45
2018-08-28T22:37:48.274Z,15.43
2018-08-28T22:40:22.046Z,15.40
2018-08-28T22:42:55.583Z,15.33
2018-08-28T22:45:29.866Z,15.28
2018-08-28T22:48:03.372Z,15.22
2018-08-28T22:50:36.960Z,15.22
2018-08-28T22:53:10.475Z,15.19
2018-08-28T22:55:44.028Z,15.16
2018-08-28T22:58:17.562Z,15.12
2018-08-28T23:00:50.879Z,15.09
2018-08-28T23:03:24.408Z,15.07
2018-08-28T23:05:57.773Z,14.96
2018-08-28T23:08:31.131Z,14.89
2018-08-28T23:11:04.605Z,14.73
2018-08-28T23:13:37.945Z,14.67
2018-08-28T23:16:11.253Z,14.70
2018-08-28T23:18:44.607Z,14.65
2018-08-28T23:21:18.002Z,14.65
2018-08-28T23:23:51.393Z,14.59
2018-08-28T23:26:24.706Z,14.58
2018-08-28T23:28:58.893Z,14.51
2018-08-28T23:31:32.218Z,14.50
2018-08-28T23:34:05.548Z,14.48
2018-08-28T23:36:39.162Z,14.46
2018-08-28T23:39:12.549Z,14.42
2018-08-28T23:41:46.889Z,14.39
2018-08-28T23:44:20.397Z,14.33
2018-08-28T23:46:53.700Z,14.30
2018-08-28T23:49:27.170Z,14.26
2018-08-28T23:52:00.468Z,14.26
2018-08-28T23:54:33.827Z,14.26
2018-08-28T23:57:07.147Z,14.23
2018-08-28T23:59:40.849Z,14.16
